sensor_id;sensor_type;location;lat;lon;timestamp;temperature;humidity
52107;DHT22;38105;52.968;5.974;2022-09-13T00:01:36;18.10;99.90
52107;DHT22;38105;52.968;5.974;2022-09-13T00:04:02;18.00;99.90
52107;DHT22;38105;52.968;5.974;2022-09-13T00:06:29;18.10;99.90
52107;DHT22;38105;52.968;5.974;2022-09-13T00:08:54;18.10;99.90
52107;DHT22;38105;52.968;5.974;2022-09-13T00:11:25;18.00;99.90
52107;DHT22;38105;52.968;5.974;2022-09-13T00:13:51;18.00;99.90
52107;DHT22;38105;52.968;5.974;2022-09-13T00:16:19;18.00;99.90
52107;DHT22;38105;52.968;5.974;2022-09-13T00:18:45;18.10;99.90
52107;DHT22;38105;52.968;5.974;2022-09-13T00:21:13;18.00;99.90
52107;DHT22;38105;52.968;5.974;2022-09-13T00:23:41;18.20;99.90
52107;DHT22;38105;52.968;5.974;2022-09-13T00:26:11;18.30;99.90
52107;DHT22;38105;52.968;5.974;2022-09-13T00:28:37;18.10;99.90
52107;DHT22;38105;52.968;5.974;2022-09-13T00:31:05;18.30;99.90
52107;DHT22;38105;52.968;5.974;2022-09-13T00:33:31;18.10;99.90
52107;DHT22;38105;52.968;5.974;2022-09-13T00:35:57;18.20;99.90
52107;DHT22;38105;52.968;5.974;2022-09-13T00:38:23;18.20;99.90
52107;DHT22;38105;52.968;5.974;2022-09-13T00:40:48;18.10;99.90
52107;DHT22;38105;52.968;5.974;2022-09-13T00:43:56;18.20;99.90
52107;DHT22;38105;52.968;5.974;2022-09-13T00:48:48;18.10;99.90
52107;DHT22;38105;52.968;5.974;2022-09-13T00:51:15;18.00;99.90
52107;DHT22;38105;52.968;5.974;2022-09-13T00:53:46;18.20;99.90
52107;DHT22;38105;52.968;5.974;2022-09-13T00:56:27;18.00;99.90
52107;DHT22;38105;52.968;5.974;2022-09-13T00:59:01;18.00;99.90
52107;DHT22;38105;52.968;5.974;2022-09-13T01:01:32;18.20;99.90
52107;DHT22;38105;52.968;5.974;2022-09-13T01:03:59;18.20;99.90
52107;DHT22;38105;52.968;5.974;2022-09-13T01:06:28;18.20;99.90
52107;DHT22;38105;52.968;5.974;2022-09-13T01:08:59;18.20;99.90
52107;DHT22;38105;52.968;5.974;2022-09-13T01:14:21;18.20;99.90
52107;DHT22;38105;52.968;5.974;2022-09-13T01:16:48;18.30;99.90
52107;DHT22;38105;52.968;5.974;2022-09-13T01:19:15;18.10;99.90
52107;DHT22;38105;52.968;5.974;2022-09-13T01:48:15;18.10;99.90
52107;DHT22;38105;52.968;5.974;2022-09-13T01:50:46;18.00;99.90
52107;DHT22;38105;52.968;5.974;2022-09-13T01:57:03;18.20;99.90
52107;DHT22;38105;52.968;5.974;2022-09-13T01:59:52;18.10;99.90
52107;DHT22;38105;52.968;5.974;2022-09-13T02:05:08;18.00;99.90
52107;DHT22;38105;52.968;5.974;2022-09-13T02:07:40;18.00;99.90
52107;DHT22;38105;52.968;5.974;2022-09-13T02:10:13;18.10;99.90
52107;DHT22;38105;52.968;5.974;2022-09-13T02:12:42;18.00;99.90
52107;DHT22;38105;52.968;5.974;2022-09-13T02:15:09;18.10;99.90
52107;DHT22;38105;52.968;5.974;2022-09-13T02:17:38;18.10;99.90
52107;DHT22;38105;52.968;5.974;2022-09-13T02:20:12;17.90;99.90
52107;DHT22;38105;52.968;5.974;2022-09-13T02:22:44;17.90;99.90
52107;DHT22;38105;52.968;5.974;2022-09-13T02:25:15;18.00;99.90
52107;DHT22;38105;52.968;5.974;2022-09-13T02:27:45;18.10;99.90
52107;DHT22;38105;52.968;5.974;2022-09-13T02:30:13;18.00;99.90
52107;DHT22;38105;52.968;5.974;2022-09-13T02:32:47;18.00;99.90
52107;DHT22;38105;52.968;5.974;2022-09-13T02:35:19;17.90;99.90
52107;DHT22;38105;52.968;5.974;2022-09-13T02:37:54;18.10;99.90
52107;DHT22;38105;52.968;5.974;2022-09-13T02:40:25;18.00;99.90
52107;DHT22;38105;52.968;5.974;2022-09-13T02:42:59;17.90;99.90
52107;DHT22;38105;52.968;5.974;2022-09-13T02:45:34;18.00;99.90
52107;DHT22;38105;52.968;5.974;2022-09-13T02:48:09;18.00;99.90
52107;DHT22;38105;52.968;5.974;2022-09-13T02:50:53;18.00;99.90
52107;DHT22;38105;52.968;5.974;2022-09-13T02:56:38;18.20;99.90
52107;DHT22;38105;52.968;5.974;2022-09-13T02:59:14;18.10;99.90
52107;DHT22;38105;52.968;5.974;2022-09-13T03:01:44;18.20;99.90
52107;DHT22;38105;52.968;5.974;2022-09-13T03:04:12;18.10;99.90
52107;DHT22;38105;52.968;5.974;2022-09-13T03:06:39;18.10;99.90
52107;DHT22;38105;52.968;5.974;2022-09-13T03:09:05;18.20;99.90
52107;DHT22;38105;52.968;5.974;2022-09-13T03:17:06;18.20;99.90
52107;DHT22;38105;52.968;5.974;2022-09-13T03:19:58;18.30;99.90
52107;DHT22;38105;52.968;5.974;2022-09-13T03:22:53;18.30;99.90
52107;DHT22;38105;52.968;5.974;2022-09-13T03:25:32;18.20;99.90
52107;DHT22;38105;52.968;5.974;2022-09-13T03:31:16;18.10;99.90
52107;DHT22;38105;52.968;5.974;2022-09-13T03:34:37;18.30;99.90
52107;DHT22;38105;52.968;5.974;2022-09-13T03:36:45;18.30;99.90
52107;DHT22;38105;52.968;5.974;2022-09-13T03:42:10;18.00;99.90
52107;DHT22;38105;52.968;5.974;2022-09-13T03:44:38;18.20;99.90
52107;DHT22;38105;52.968;5.974;2022-09-13T03:47:06;18.10;99.90
52107;DHT22;38105;52.968;5.974;2022-09-13T03:49:33;18.20;99.90
52107;DHT22;38105;52.968;5.974;2022-09-13T03:52:01;18.10;99.90
52107;DHT22;38105;52.968;5.974;2022-09-13T03:54:29;18.10;99.90
52107;DHT22;38105;52.968;5.974;2022-09-13T03:59:35;18.10;99.90
52107;DHT22;38105;52.968;5.974;2022-09-13T04:02:03;17.90;99.90
52107;DHT22;38105;52.968;5.974;2022-09-13T04:04:29;18.00;99.90
52107;DHT22;38105;52.968;5.974;2022-09-13T04:06:54;18.00;99.90
52107;DHT22;38105;52.968;5.974;2022-09-13T04:09:22;17.80;99.90
52107;DHT22;38105;52.968;5.974;2022-09-13T04:11:47;17.80;99.90
52107;DHT22;38105;52.968;5.974;2022-09-13T04:14:13;17.70;99.90
52107;DHT22;38105;52.968;5.974;2022-09-13T04:16:40;17.80;99.90
52107;DHT22;38105;52.968;5.974;2022-09-13T04:19:06;18.00;99.90
52107;DHT22;38105;52.968;5.974;2022-09-13T04:21:32;18.00;99.90
52107;DHT22;38105;52.968;5.974;2022-09-13T04:23:57;18.00;99.90
52107;DHT22;38105;52.968;5.974;2022-09-13T04:26:23;17.80;99.90
52107;DHT22;38105;52.968;5.974;2022-09-13T04:28:48;17.80;99.90
52107;DHT22;38105;52.968;5.974;2022-09-13T04:31:14;17.90;99.90
52107;DHT22;38105;52.968;5.974;2022-09-13T04:33:40;17.90;99.90
52107;DHT22;38105;52.968;5.974;2022-09-13T04:36:06;17.70;99.90
52107;DHT22;38105;52.968;5.974;2022-09-13T04:38:31;17.80;99.90
52107;DHT22;38105;52.968;5.974;2022-09-13T04:40:57;17.90;99.90
52107;DHT22;38105;52.968;5.974;2022-09-13T04:43:23;17.70;99.90
52107;DHT22;38105;52.968;5.974;2022-09-13T04:45:49;17.80;99.90
52107;DHT22;38105;52.968;5.974;2022-09-13T04:48:14;17.70;99.90
52107;DHT22;38105;52.968;5.974;2022-09-13T04:50:41;17.90;99.90
52107;DHT22;38105;52.968;5.974;2022-09-13T04:53:06;17.70;99.90
52107;DHT22;38105;52.968;5.974;2022-09-13T04:55:32;17.80;99.90
52107;DHT22;38105;52.968;5.974;2022-09-13T04:57:58;17.50;99.90
52107;DHT22;38105;52.968;5.974;2022-09-13T05:00:23;17.70;99.90
52107;DHT22;38105;52.968;5.974;2022-09-13T05:02:54;17.70;99.90
52107;DHT22;38105;52.968;5.974;2022-09-13T05:05:21;17.60;99.90
52107;DHT22;38105;52.968;5.974;2022-09-13T05:07:50;17.80;99.90
52107;DHT22;38105;52.968;5.974;2022-09-13T05:10:16;17.60;99.90
52107;DHT22;38105;52.968;5.974;2022-09-13T05:12:42;17.80;99.90
52107;DHT22;38105;52.968;5.974;2022-09-13T05:15:08;17.70;99.90
52107;DHT22;38105;52.968;5.974;2022-09-13T05:17:35;17.70;99.90
52107;DHT22;38105;52.968;5.974;2022-09-13T05:20:00;17.50;99.90
52107;DHT22;38105;52.968;5.974;2022-09-13T05:22:26;17.60;99.90
52107;DHT22;38105;52.968;5.974;2022-09-13T05:24:52;17.50;99.90
52107;DHT22;38105;52.968;5.974;2022-09-13T05:27:17;17.40;99.90
52107;DHT22;38105;52.968;5.974;2022-09-13T05:29:43;17.50;99.90
52107;DHT22;38105;52.968;5.974;2022-09-13T05:32:08;17.40;99.90
52107;DHT22;38105;52.968;5.974;2022-09-13T05:34:34;17.60;99.90
52107;DHT22;38105;52.968;5.974;2022-09-13T05:37:00;17.60;99.90
52107;DHT22;38105;52.968;5.974;2022-09-13T05:39:25;17.60;99.90
52107;DHT22;38105;52.968;5.974;2022-09-13T05:41:51;17.40;99.90
52107;DHT22;38105;52.968;5.974;2022-09-13T05:44:16;17.50;99.90
52107;DHT22;38105;52.968;5.974;2022-09-13T05:46:45;17.70;99.90
52107;DHT22;38105;52.968;5.974;2022-09-13T05:49:12;17.70;99.90
52107;DHT22;38105;52.968;5.974;2022-09-13T05:51:38;17.60;99.90
52107;DHT22;38105;52.968;5.974;2022-09-13T05:54:03;17.60;99.90
52107;DHT22;38105;52.968;5.974;2022-09-13T05:56:29;17.70;99.90
52107;DHT22;38105;52.968;5.974;2022-09-13T05:58:56;17.70;99.90
52107;DHT22;38105;52.968;5.974;2022-09-13T06:01:24;17.70;99.90
52107;DHT22;38105;52.968;5.974;2022-09-13T06:03:52;17.70;99.90
52107;DHT22;38105;52.968;5.974;2022-09-13T06:06:18;17.60;99.90
52107;DHT22;38105;52.968;5.974;2022-09-13T06:08:44;17.70;99.90
52107;DHT22;38105;52.968;5.974;2022-09-13T06:11:12;17.80;99.90
52107;DHT22;38105;52.968;5.974;2022-09-13T06:13:39;17.60;99.90
52107;DHT22;38105;52.968;5.974;2022-09-13T06:16:07;17.50;99.90
52107;DHT22;38105;52.968;5.974;2022-09-13T06:18:33;17.70;99.90
52107;DHT22;38105;52.968;5.974;2022-09-13T06:21:06;17.60;99.90
52107;DHT22;38105;52.968;5.974;2022-09-13T06:23:32;17.70;99.90
52107;DHT22;38105;52.968;5.974;2022-09-13T06:26:03;17.60;99.90
52107;DHT22;38105;52.968;5.974;2022-09-13T06:28:29;17.80;99.90
52107;DHT22;38105;52.968;5.974;2022-09-13T06:31:00;17.80;99.90
52107;DHT22;38105;52.968;5.974;2022-09-13T06:33:26;17.70;99.90
52107;DHT22;38105;52.968;5.974;2022-09-13T06:35:51;17.70;99.90
52107;DHT22;38105;52.968;5.974;2022-09-13T06:38:17;17.80;99.90
52107;DHT22;38105;52.968;5.974;2022-09-13T06:40:43;17.80;99.90
52107;DHT22;38105;52.968;5.974;2022-09-13T06:43:09;17.80;99.90
52107;DHT22;38105;52.968;5.974;2022-09-13T06:45:36;17.90;99.90
52107;DHT22;38105;52.968;5.974;2022-09-13T06:48:02;18.10;99.90
52107;DHT22;38105;52.968;5.974;2022-09-13T06:50:28;18.30;99.90
52107;DHT22;38105;52.968;5.974;2022-09-13T06:52:55;18.60;99.90
52107;DHT22;38105;52.968;5.974;2022-09-13T06:55:22;18.80;99.90
52107;DHT22;38105;52.968;5.974;2022-09-13T06:57:47;19.20;99.90
52107;DHT22;38105;52.968;5.974;2022-09-13T07:00:13;19.30;99.90
52107;DHT22;38105;52.968;5.974;2022-09-13T07:02:39;20.00;99.90
52107;DHT22;38105;52.968;5.974;2022-09-13T07:05:05;20.40;99.90
52107;DHT22;38105;52.968;5.974;2022-09-13T07:07:31;20.50;99.90
52107;DHT22;38105;52.968;5.974;2022-09-13T07:09:57;20.50;99.90
52107;DHT22;38105;52.968;5.974;2022-09-13T07:12:22;20.40;99.90
52107;DHT22;38105;52.968;5.974;2022-09-13T07:14:48;20.30;99.90
52107;DHT22;38105;52.968;5.974;2022-09-13T07:17:13;20.30;99.90
52107;DHT22;38105;52.968;5.974;2022-09-13T07:19:39;20.30;99.90
52107;DHT22;38105;52.968;5.974;2022-09-13T07:22:05;20.40;99.90
52107;DHT22;38105;52.968;5.974;2022-09-13T07:24:30;20.50;99.90
52107;DHT22;38105;52.968;5.974;2022-09-13T07:26:56;20.60;99.90
52107;DHT22;38105;52.968;5.974;2022-09-13T07:29:22;20.60;99.90
52107;DHT22;38105;52.968;5.974;2022-09-13T07:31:53;20.70;99.90
52107;DHT22;38105;52.968;5.974;2022-09-13T07:34:23;20.60;99.90
52107;DHT22;38105;52.968;5.974;2022-09-13T07:36:50;20.70;99.90
52107;DHT22;38105;52.968;5.974;2022-09-13T07:39:17;20.80;99.90
52107;DHT22;38105;52.968;5.974;2022-09-13T07:41:43;20.90;99.90
52107;DHT22;38105;52.968;5.974;2022-09-13T07:44:10;21.00;99.90
52107;DHT22;38105;52.968;5.974;2022-09-13T07:46:37;21.60;99.90
52107;DHT22;38105;52.968;5.974;2022-09-13T07:49:06;22.20;99.90
52107;DHT22;38105;52.968;5.974;2022-09-13T07:51:33;23.30;99.90
52107;DHT22;38105;52.968;5.974;2022-09-13T07:54:01;24.20;99.90
52107;DHT22;38105;52.968;5.974;2022-09-13T07:56:32;24.90;99.90
52107;DHT22;38105;52.968;5.974;2022-09-13T07:59:00;24.90;99.90
52107;DHT22;38105;52.968;5.974;2022-09-13T08:01:28;24.60;99.90
52107;DHT22;38105;52.968;5.974;2022-09-13T08:03:54;25.50;99.90
52107;DHT22;38105;52.968;5.974;2022-09-13T08:06:21;26.10;99.90
52107;DHT22;38105;52.968;5.974;2022-09-13T08:08:47;27.00;99.90
52107;DHT22;38105;52.968;5.974;2022-09-13T08:11:19;28.00;99.90
52107;DHT22;38105;52.968;5.974;2022-09-13T08:13:46;28.40;99.90
52107;DHT22;38105;52.968;5.974;2022-09-13T08:16:12;28.50;99.90
52107;DHT22;38105;52.968;5.974;2022-09-13T08:18:45;27.50;99.90
52107;DHT22;38105;52.968;5.974;2022-09-13T08:21:12;27.80;99.90
52107;DHT22;38105;52.968;5.974;2022-09-13T08:23:38;28.70;99.90
52107;DHT22;38105;52.968;5.974;2022-09-13T08:26:04;29.70;99.90
52107;DHT22;38105;52.968;5.974;2022-09-13T08:28:33;30.10;99.90
52107;DHT22;38105;52.968;5.974;2022-09-13T08:31:07;30.90;99.90
52107;DHT22;38105;52.968;5.974;2022-09-13T08:33:33;31.50;99.40
52107;DHT22;38105;52.968;5.974;2022-09-13T08:35:59;31.70;98.90
52107;DHT22;38105;52.968;5.974;2022-09-13T08:38:25;32.20;98.70
52107;DHT22;38105;52.968;5.974;2022-09-13T08:40:57;33.10;98.10
52107;DHT22;38105;52.968;5.974;2022-09-13T08:43:48;33.70;95.00
52107;DHT22;38105;52.968;5.974;2022-09-13T08:46:28;33.10;94.50
52107;DHT22;38105;52.968;5.974;2022-09-13T08:48:59;32.10;96.50
52107;DHT22;38105;52.968;5.974;2022-09-13T08:54:00;29.70;96.90
52107;DHT22;38105;52.968;5.974;2022-09-13T09:01:54;27.00;99.90
52107;DHT22;38105;52.968;5.974;2022-09-13T09:07:05;29.10;99.50
52107;DHT22;38105;52.968;5.974;2022-09-13T09:15:16;30.60;95.90
52107;DHT22;38105;52.968;5.974;2022-09-13T09:17:57;29.60;97.20
52107;DHT22;38105;52.968;5.974;2022-09-13T09:20:29;27.70;97.60
52107;DHT22;38105;52.968;5.974;2022-09-13T09:23:03;26.70;99.10
52107;DHT22;38105;52.968;5.974;2022-09-13T09:25:30;27.10;98.50
52107;DHT22;38105;52.968;5.974;2022-09-13T09:27:57;28.40;98.40
52107;DHT22;38105;52.968;5.974;2022-09-13T09:30:24;30.00;97.80
52107;DHT22;38105;52.968;5.974;2022-09-13T09:38:41;32.00;95.10
52107;DHT22;38105;52.968;5.974;2022-09-13T09:41:22;32.00;94.80
52107;DHT22;38105;52.968;5.974;2022-09-13T09:44:19;31.60;93.60
52107;DHT22;38105;52.968;5.974;2022-09-13T09:47:06;30.80;92.80
52107;DHT22;38105;52.968;5.974;2022-09-13T09:52:44;30.30;93.50
52107;DHT22;38105;52.968;5.974;2022-09-13T09:55:56;29.50;92.90
52107;DHT22;38105;52.968;5.974;2022-09-13T09:58:13;29.50;93.80
52107;DHT22;38105;52.968;5.974;2022-09-13T10:00:52;29.30;94.50
52107;DHT22;38105;52.968;5.974;2022-09-13T10:03:24;29.30;94.10
52107;DHT22;38105;52.968;5.974;2022-09-13T10:06:05;28.80;95.70
52107;DHT22;38105;52.968;5.974;2022-09-13T10:08:34;28.70;95.90
52107;DHT22;38105;52.968;5.974;2022-09-13T10:11:02;28.70;95.60
52107;DHT22;38105;52.968;5.974;2022-09-13T10:13:29;28.50;96.10
52107;DHT22;38105;52.968;5.974;2022-09-13T10:16:04;28.00;95.20
52107;DHT22;38105;52.968;5.974;2022-09-13T10:18:34;27.30;96.50
52107;DHT22;38105;52.968;5.974;2022-09-13T10:23:30;26.70;97.30
52107;DHT22;38105;52.968;5.974;2022-09-13T10:28:26;26.60;97.00
52107;DHT22;38105;52.968;5.974;2022-09-13T10:31:07;26.20;97.10
52107;DHT22;38105;52.968;5.974;2022-09-13T10:36:18;26.00;97.60
52107;DHT22;38105;52.968;5.974;2022-09-13T10:38:59;25.70;97.40
52107;DHT22;38105;52.968;5.974;2022-09-13T10:41:31;25.30;96.80
52107;DHT22;38105;52.968;5.974;2022-09-13T10:44:02;25.10;98.10
52107;DHT22;38105;52.968;5.974;2022-09-13T10:46:33;25.50;98.80
52107;DHT22;38105;52.968;5.974;2022-09-13T10:49:00;25.80;99.10
52107;DHT22;38105;52.968;5.974;2022-09-13T10:54:08;25.40;97.20
52107;DHT22;38105;52.968;5.974;2022-09-13T10:56:35;25.30;97.30
52107;DHT22;38105;52.968;5.974;2022-09-13T10:59:26;24.80;97.50
52107;DHT22;38105;52.968;5.974;2022-09-13T11:02:36;25.00;98.40
52107;DHT22;38105;52.968;5.974;2022-09-13T11:05:50;25.10;97.20
52107;DHT22;38105;52.968;5.974;2022-09-13T11:10:52;25.00;96.70
52107;DHT22;38105;52.968;5.974;2022-09-13T11:18:58;24.80;97.90
52107;DHT22;38105;52.968;5.974;2022-09-13T11:32:16;24.70;98.80
52107;DHT22;38105;52.968;5.974;2022-09-13T11:35:08;24.40;98.30
52107;DHT22;38105;52.968;5.974;2022-09-13T11:40:33;24.60;98.70
52107;DHT22;38105;52.968;5.974;2022-09-13T11:46:26;24.90;98.70
52107;DHT22;38105;52.968;5.974;2022-09-13T11:56:22;24.50;98.30
52107;DHT22;38105;52.968;5.974;2022-09-13T11:59:16;24.40;97.90
52107;DHT22;38105;52.968;5.974;2022-09-13T12:01:46;24.00;98.80
52107;DHT22;38105;52.968;5.974;2022-09-13T12:04:31;24.00;99.00
52107;DHT22;38105;52.968;5.974;2022-09-13T12:07:00;23.70;98.70
52107;DHT22;38105;52.968;5.974;2022-09-13T12:09:31;23.60;98.50
52107;DHT22;38105;52.968;5.974;2022-09-13T12:12:05;23.70;98.90
52107;DHT22;38105;52.968;5.974;2022-09-13T12:14:53;23.90;98.80
52107;DHT22;38105;52.968;5.974;2022-09-13T12:17:44;23.90;97.60
52107;DHT22;38105;52.968;5.974;2022-09-13T12:20:28;23.80;98.50
52107;DHT22;38105;52.968;5.974;2022-09-13T12:22:57;23.90;98.20
52107;DHT22;38105;52.968;5.974;2022-09-13T12:25:28;23.90;97.90
52107;DHT22;38105;52.968;5.974;2022-09-13T12:28:16;24.00;98.90
52107;DHT22;38105;52.968;5.974;2022-09-13T12:30:49;23.90;98.10
52107;DHT22;38105;52.968;5.974;2022-09-13T12:33:17;24.00;98.90
52107;DHT22;38105;52.968;5.974;2022-09-13T12:35:48;24.10;98.00
52107;DHT22;38105;52.968;5.974;2022-09-13T12:38:31;23.90;98.80
52107;DHT22;38105;52.968;5.974;2022-09-13T12:41:09;24.00;99.70
52107;DHT22;38105;52.968;5.974;2022-09-13T12:52:02;23.60;99.90
52107;DHT22;38105;52.968;5.974;2022-09-13T13:02:40;23.30;99.90
52107;DHT22;38105;52.968;5.974;2022-09-13T13:05:35;23.20;99.60
52107;DHT22;38105;52.968;5.974;2022-09-13T13:08:04;23.20;99.90
52107;DHT22;38105;52.968;5.974;2022-09-13T13:10:37;23.30;99.90
52107;DHT22;38105;52.968;5.974;2022-09-13T13:13:14;23.20;99.90
52107;DHT22;38105;52.968;5.974;2022-09-13T13:18:31;23.20;99.90
52107;DHT22;38105;52.968;5.974;2022-09-13T13:21:27;23.20;99.90
52107;DHT22;38105;52.968;5.974;2022-09-13T13:26:49;23.20;99.90
52107;DHT22;38105;52.968;5.974;2022-09-13T13:46:53;22.70;99.90
52107;DHT22;38105;52.968;5.974;2022-09-13T13:57:39;22.40;99.90
52107;DHT22;38105;52.968;5.974;2022-09-13T14:00:14;22.10;99.90
52107;DHT22;38105;52.968;5.974;2022-09-13T14:05:27;21.80;99.90
52107;DHT22;38105;52.968;5.974;2022-09-13T14:10:43;21.80;99.90
52107;DHT22;38105;52.968;5.974;2022-09-13T14:21:30;22.00;99.90
52107;DHT22;38105;52.968;5.974;2022-09-13T14:24:18;22.00;99.90
52107;DHT22;38105;52.968;5.974;2022-09-13T14:26:46;22.00;99.90
52107;DHT22;38105;52.968;5.974;2022-09-13T14:29:17;21.90;99.90
52107;DHT22;38105;52.968;5.974;2022-09-13T14:31:51;21.80;99.90
52107;DHT22;38105;52.968;5.974;2022-09-13T14:34:27;21.70;99.90
52107;DHT22;38105;52.968;5.974;2022-09-13T14:36:56;21.60;99.90
52107;DHT22;38105;52.968;5.974;2022-09-13T14:39:23;21.50;99.90
52107;DHT22;38105;52.968;5.974;2022-09-13T14:41:57;21.50;99.90
52107;DHT22;38105;52.968;5.974;2022-09-13T14:44:25;21.60;99.90
52107;DHT22;38105;52.968;5.974;2022-09-13T14:49:40;21.90;99.90
52107;DHT22;38105;52.968;5.974;2022-09-13T14:52:14;21.80;99.90
52107;DHT22;38105;52.968;5.974;2022-09-13T14:54:46;21.70;99.90
52107;DHT22;38105;52.968;5.974;2022-09-13T14:57:30;21.50;99.90
52107;DHT22;38105;52.968;5.974;2022-09-13T15:00:03;21.50;99.90
52107;DHT22;38105;52.968;5.974;2022-09-13T15:02:31;21.40;99.90
52107;DHT22;38105;52.968;5.974;2022-09-13T15:05:00;21.40;99.90
52107;DHT22;38105;52.968;5.974;2022-09-13T15:10:18;21.30;99.90
52107;DHT22;38105;52.968;5.974;2022-09-13T15:20:50;21.10;99.90
52107;DHT22;38105;52.968;5.974;2022-09-13T15:23:26;20.90;99.90
52107;DHT22;38105;52.968;5.974;2022-09-13T15:26:08;21.00;99.90
52107;DHT22;38105;52.968;5.974;2022-09-13T15:31:10;20.90;99.90
52107;DHT22;38105;52.968;5.974;2022-09-13T15:33:43;20.80;99.90
52107;DHT22;38105;52.968;5.974;2022-09-13T15:41:38;20.70;99.90
52107;DHT22;38105;52.968;5.974;2022-09-13T15:44:06;20.50;99.90
52107;DHT22;38105;52.968;5.974;2022-09-13T15:46:48;20.50;99.90
52107;DHT22;38105;52.968;5.974;2022-09-13T15:49:18;20.50;99.90
52107;DHT22;38105;52.968;5.974;2022-09-13T15:51:45;20.50;99.90
52107;DHT22;38105;52.968;5.974;2022-09-13T15:54:13;20.50;99.90
52107;DHT22;38105;52.968;5.974;2022-09-13T15:56:42;20.50;99.90
52107;DHT22;38105;52.968;5.974;2022-09-13T15:59:16;20.50;99.90
52107;DHT22;38105;52.968;5.974;2022-09-13T16:01:43;20.40;99.90
52107;DHT22;38105;52.968;5.974;2022-09-13T16:04:09;20.30;99.90
52107;DHT22;38105;52.968;5.974;2022-09-13T16:06:36;20.20;99.90
52107;DHT22;38105;52.968;5.974;2022-09-13T16:09:10;20.20;99.90
52107;DHT22;38105;52.968;5.974;2022-09-13T16:11:40;20.20;99.90
52107;DHT22;38105;52.968;5.974;2022-09-13T16:14:05;20.00;99.90
52107;DHT22;38105;52.968;5.974;2022-09-13T16:16:31;20.00;99.90
52107;DHT22;38105;52.968;5.974;2022-09-13T16:18:57;20.10;99.90
52107;DHT22;38105;52.968;5.974;2022-09-13T16:21:22;20.00;99.90
52107;DHT22;38105;52.968;5.974;2022-09-13T16:23:48;20.00;99.90
52107;DHT22;38105;52.968;5.974;2022-09-13T16:26:14;20.00;99.90
52107;DHT22;38105;52.968;5.974;2022-09-13T16:28:39;19.90;99.90
52107;DHT22;38105;52.968;5.974;2022-09-13T16:31:05;19.90;99.90
52107;DHT22;38105;52.968;5.974;2022-09-13T16:33:31;19.80;99.90
52107;DHT22;38105;52.968;5.974;2022-09-13T16:35:56;19.80;99.90
52107;DHT22;38105;52.968;5.974;2022-09-13T16:38:22;19.70;99.90
52107;DHT22;38105;52.968;5.974;2022-09-13T16:40:48;19.60;99.90
52107;DHT22;38105;52.968;5.974;2022-09-13T16:43:13;19.50;99.90
52107;DHT22;38105;52.968;5.974;2022-09-13T16:45:40;19.50;99.90
52107;DHT22;38105;52.968;5.974;2022-09-13T16:48:06;19.40;99.90
52107;DHT22;38105;52.968;5.974;2022-09-13T16:50:33;19.30;99.90
52107;DHT22;38105;52.968;5.974;2022-09-13T16:52:58;19.20;99.90
52107;DHT22;38105;52.968;5.974;2022-09-13T16:55:24;19.20;99.90
52107;DHT22;38105;52.968;5.974;2022-09-13T16:57:51;19.30;99.90
52107;DHT22;38105;52.968;5.974;2022-09-13T17:00:18;19.10;99.90
52107;DHT22;38105;52.968;5.974;2022-09-13T17:02:45;19.10;99.90
52107;DHT22;38105;52.968;5.974;2022-09-13T17:05:12;19.10;99.90
52107;DHT22;38105;52.968;5.974;2022-09-13T17:07:38;19.00;99.90
52107;DHT22;38105;52.968;5.974;2022-09-13T17:10:05;19.00;99.90
52107;DHT22;38105;52.968;5.974;2022-09-13T17:12:32;19.00;99.90
52107;DHT22;38105;52.968;5.974;2022-09-13T17:14:58;19.00;99.90
52107;DHT22;38105;52.968;5.974;2022-09-13T17:17:24;18.90;99.90
52107;DHT22;38105;52.968;5.974;2022-09-13T17:19:50;18.90;99.90
52107;DHT22;38105;52.968;5.974;2022-09-13T17:22:17;18.90;99.90
52107;DHT22;38105;52.968;5.974;2022-09-13T17:24:43;18.80;99.90
52107;DHT22;38105;52.968;5.974;2022-09-13T17:27:09;18.80;99.90
52107;DHT22;38105;52.968;5.974;2022-09-13T17:29:35;18.80;99.90
52107;DHT22;38105;52.968;5.974;2022-09-13T17:32:02;18.70;99.90
52107;DHT22;38105;52.968;5.974;2022-09-13T17:34:29;18.80;99.90
52107;DHT22;38105;52.968;5.974;2022-09-13T17:36:57;18.70;99.90
52107;DHT22;38105;52.968;5.974;2022-09-13T17:39:22;18.70;99.90
52107;DHT22;38105;52.968;5.974;2022-09-13T17:41:48;18.60;99.90
52107;DHT22;38105;52.968;5.974;2022-09-13T17:44:15;18.50;99.90
52107;DHT22;38105;52.968;5.974;2022-09-13T17:46:41;18.40;99.90
52107;DHT22;38105;52.968;5.974;2022-09-13T17:49:07;18.20;99.90
52107;DHT22;38105;52.968;5.974;2022-09-13T17:51:33;18.20;99.90
52107;DHT22;38105;52.968;5.974;2022-09-13T17:54:01;18.10;99.90
52107;DHT22;38105;52.968;5.974;2022-09-13T17:56:32;18.00;99.90
52107;DHT22;38105;52.968;5.974;2022-09-13T17:59:19;18.00;99.90
52107;DHT22;38105;52.968;5.974;2022-09-13T18:01:50;17.90;99.90
52107;DHT22;38105;52.968;5.974;2022-09-13T18:04:19;17.90;99.90
52107;DHT22;38105;52.968;5.974;2022-09-13T18:06:45;17.90;99.90
52107;DHT22;38105;52.968;5.974;2022-09-13T18:09:12;17.90;99.90
52107;DHT22;38105;52.968;5.974;2022-09-13T18:11:38;17.80;99.90
52107;DHT22;38105;52.968;5.974;2022-09-13T18:14:05;17.70;99.90
52107;DHT22;38105;52.968;5.974;2022-09-13T18:16:31;17.70;99.90
52107;DHT22;38105;52.968;5.974;2022-09-13T18:18:58;17.50;99.90
52107;DHT22;38105;52.968;5.974;2022-09-13T18:21:25;17.50;99.90
52107;DHT22;38105;52.968;5.974;2022-09-13T18:23:55;17.40;99.90
52107;DHT22;38105;52.968;5.974;2022-09-13T18:26:23;17.40;99.90
52107;DHT22;38105;52.968;5.974;2022-09-13T18:28:58;17.40;99.90
52107;DHT22;38105;52.968;5.974;2022-09-13T18:31:26;17.40;99.90
52107;DHT22;38105;52.968;5.974;2022-09-13T18:33:54;17.40;99.90
52107;DHT22;38105;52.968;5.974;2022-09-13T18:36:21;17.30;99.90
52107;DHT22;38105;52.968;5.974;2022-09-13T18:38:47;17.20;99.90
52107;DHT22;38105;52.968;5.974;2022-09-13T18:41:37;17.20;99.90
52107;DHT22;38105;52.968;5.974;2022-09-13T18:44:08;17.10;99.90
52107;DHT22;38105;52.968;5.974;2022-09-13T18:46:35;17.00;99.90
52107;DHT22;38105;52.968;5.974;2022-09-13T18:49:02;16.90;99.90
52107;DHT22;38105;52.968;5.974;2022-09-13T18:51:33;16.90;99.90
52107;DHT22;38105;52.968;5.974;2022-09-13T18:54:00;16.80;99.90
52107;DHT22;38105;52.968;5.974;2022-09-13T18:56:27;16.60;99.90
52107;DHT22;38105;52.968;5.974;2022-09-13T18:58:54;16.60;99.90
52107;DHT22;38105;52.968;5.974;2022-09-13T19:01:22;16.40;99.90
52107;DHT22;38105;52.968;5.974;2022-09-13T19:03:49;16.30;99.90
52107;DHT22;38105;52.968;5.974;2022-09-13T19:06:21;16.20;99.90
52107;DHT22;38105;52.968;5.974;2022-09-13T19:08:52;16.10;99.90
52107;DHT22;38105;52.968;5.974;2022-09-13T19:11:19;16.00;99.90
52107;DHT22;38105;52.968;5.974;2022-09-13T19:13:45;15.90;99.90
52107;DHT22;38105;52.968;5.974;2022-09-13T19:16:14;16.00;99.90